sensor_id;sensor_type;location;lat;lon;timestamp;P1;durP1;ratioP1;P2;durP2;ratioP2
58697;SDS011;44475;53.206;-6.106;2023-03-04T00:02:04;3.40;;;1.73;;
58697;SDS011;44475;53.206;-6.106;2023-03-04T00:04:30;2.95;;;1.35;;
58697;SDS011;44475;53.206;-6.106;2023-03-04T00:06:57;3.80;;;1.50;;
58697;SDS011;44475;53.206;-6.106;2023-03-04T00:09:23;2.15;;;1.50;;
58697;SDS011;44475;53.206;-6.106;2023-03-04T00:11:49;3.72;;;1.80;;
58697;SDS011;44475;53.206;-6.106;2023-03-04T00:14:16;3.03;;;1.50;;
58697;SDS011;44475;53.206;-6.106;2023-03-04T00:16:42;2.60;;;1.50;;
58697;SDS011;44475;53.206;-6.106;2023-03-04T00:19:09;2.00;;;1.42;;
58697;SDS011;44475;53.206;-6.106;2023-03-04T00:21:35;3.13;;;1.50;;
58697;SDS011;44475;53.206;-6.106;2023-03-04T00:24:02;3.47;;;1.80;;
58697;SDS011;44475;53.206;-6.106;2023-03-04T00:26:28;2.50;;;1.60;;
58697;SDS011;44475;53.206;-6.106;2023-03-04T00:28:54;2.33;;;1.50;;
58697;SDS011;44475;53.206;-6.106;2023-03-04T00:31:20;2.97;;;1.63;;
58697;SDS011;44475;53.206;-6.106;2023-03-04T00:33:47;2.10;;;1.50;;
58697;SDS011;44475;53.206;-6.106;2023-03-04T00:36:13;3.15;;;1.70;;
58697;SDS011;44475;53.206;-6.106;2023-03-04T00:38:39;1.65;;;1.35;;
58697;SDS011;44475;53.206;-6.106;2023-03-04T00:41:07;1.63;;;1.40;;
58697;SDS011;44475;53.206;-6.106;2023-03-04T00:43:33;1.92;;;1.50;;
58697;SDS011;44475;53.206;-6.106;2023-03-04T00:45:59;1.85;;;1.42;;
58697;SDS011;44475;53.206;-6.106;2023-03-04T00:48:26;2.53;;;1.50;;
58697;SDS011;44475;53.206;-6.106;2023-03-04T00:50:52;3.63;;;1.58;;
58697;SDS011;44475;53.206;-6.106;2023-03-04T00:53:19;2.63;;;1.60;;
58697;SDS011;44475;53.206;-6.106;2023-03-04T00:55:45;2.40;;;1.48;;
58697;SDS011;44475;53.206;-6.106;2023-03-04T00:58:11;1.70;;;1.40;;
58697;SDS011;44475;53.206;-6.106;2023-03-04T01:00:38;1.98;;;1.38;;
58697;SDS011;44475;53.206;-6.106;2023-03-04T01:03:05;2.75;;;1.40;;
58697;SDS011;44475;53.206;-6.106;2023-03-04T01:05:32;2.63;;;1.40;;
58697;SDS011;44475;53.206;-6.106;2023-03-04T01:08:00;1.70;;;1.48;;
58697;SDS011;44475;53.206;-6.106;2023-03-04T01:10:27;2.00;;;1.50;;
58697;SDS011;44475;53.206;-6.106;2023-03-04T01:12:53;2.45;;;1.55;;
58697;SDS011;44475;53.206;-6.106;2023-03-04T01:15:20;3.00;;;1.30;;
58697;SDS011;44475;53.206;-6.106;2023-03-04T01:17:46;1.63;;;1.40;;
58697;SDS011;44475;53.206;-6.106;2023-03-04T01:20:13;1.77;;;1.38;;
58697;SDS011;44475;53.206;-6.106;2023-03-04T01:22:40;1.60;;;1.30;;
58697;SDS011;44475;53.206;-6.106;2023-03-04T01:25:08;3.17;;;1.52;;
58697;SDS011;44475;53.206;-6.106;2023-03-04T01:27:34;3.13;;;1.60;;
58697;SDS011;44475;53.206;-6.106;2023-03-04T01:30:01;2.55;;;1.55;;
58697;SDS011;44475;53.206;-6.106;2023-03-04T01:32:28;1.95;;;1.40;;
58697;SDS011;44475;53.206;-6.106;2023-03-04T01:34:54;2.70;;;1.50;;
58697;SDS011;44475;53.206;-6.106;2023-03-04T01:37:21;2.08;;;1.60;;
58697;SDS011;44475;53.206;-6.106;2023-03-04T01:39:48;2.05;;;1.50;;
58697;SDS011;44475;53.206;-6.106;2023-03-04T01:42:18;1.73;;;1.40;;
58697;SDS011;44475;53.206;-6.106;2023-03-04T01:47:14;1.50;;;1.30;;
58697;SDS011;44475;53.206;-6.106;2023-03-04T01:49:41;2.10;;;1.40;;
58697;SDS011;44475;53.206;-6.106;2023-03-04T01:52:11;3.35;;;1.50;;
58697;SDS011;44475;53.206;-6.106;2023-03-04T01:54:38;3.25;;;1.60;;
58697;SDS011;44475;53.206;-6.106;2023-03-04T01:57:14;1.38;;;1.27;;
58697;SDS011;44475;53.206;-6.106;2023-03-04T02:00:10;2.30;;;1.45;;
58697;SDS011;44475;53.206;-6.106;2023-03-04T02:02:39;1.85;;;1.38;;
58697;SDS011;44475;53.206;-6.106;2023-03-04T02:05:05;1.58;;;1.33;;
58697;SDS011;44475;53.206;-6.106;2023-03-04T02:07:32;3.08;;;1.40;;
58697;SDS011;44475;53.206;-6.106;2023-03-04T02:09:59;2.72;;;1.38;;
58697;SDS011;44475;53.206;-6.106;2023-03-04T02:12:25;2.42;;;1.40;;
58697;SDS011;44475;53.206;-6.106;2023-03-04T02:14:52;1.70;;;1.30;;
58697;SDS011;44475;53.206;-6.106;2023-03-04T02:17:23;1.52;;;1.30;;
58697;SDS011;44475;53.206;-6.106;2023-03-04T02:22:32;2.13;;;1.40;;
58697;SDS011;44475;53.206;-6.106;2023-03-04T02:25:08;1.93;;;1.40;;
58697;SDS011;44475;53.206;-6.106;2023-03-04T02:27:41;1.70;;;1.30;;
58697;SDS011;44475;53.206;-6.106;2023-03-04T02:30:08;1.73;;;1.38;;
58697;SDS011;44475;53.206;-6.106;2023-03-04T02:32:35;1.65;;;1.30;;
58697;SDS011;44475;53.206;-6.106;2023-03-04T02:35:02;1.77;;;1.15;;
58697;SDS011;44475;53.206;-6.106;2023-03-04T02:37:29;1.60;;;1.27;;
58697;SDS011;44475;53.206;-6.106;2023-03-04T02:39:55;1.73;;;1.27;;
58697;SDS011;44475;53.206;-6.106;2023-03-04T02:42:22;1.33;;;1.17;;
58697;SDS011;44475;53.206;-6.106;2023-03-04T02:44:48;1.48;;;1.30;;
58697;SDS011;44475;53.206;-6.106;2023-03-04T02:47:23;3.38;;;1.42;;
58697;SDS011;44475;53.206;-6.106;2023-03-04T02:49:50;1.38;;;1.10;;
58697;SDS011;44475;53.206;-6.106;2023-03-04T02:52:17;2.15;;;1.20;;
58697;SDS011;44475;53.206;-6.106;2023-03-04T02:54:45;2.90;;;1.30;;
58697;SDS011;44475;53.206;-6.106;2023-03-04T02:57:12;2.28;;;1.33;;
58697;SDS011;44475;53.206;-6.106;2023-03-04T02:59:41;3.50;;;1.23;;
58697;SDS011;44475;53.206;-6.106;2023-03-04T03:02:12;2.92;;;1.38;;
58697;SDS011;44475;53.206;-6.106;2023-03-04T03:04:39;3.28;;;1.20;;
58697;SDS011;44475;53.206;-6.106;2023-03-04T03:07:09;6.70;;;1.60;;
58697;SDS011;44475;53.206;-6.106;2023-03-04T03:09:36;5.57;;;1.40;;
58697;SDS011;44475;53.206;-6.106;2023-03-04T03:12:02;3.53;;;1.35;;
58697;SDS011;44475;53.206;-6.106;2023-03-04T03:14:30;4.93;;;1.30;;
58697;SDS011;44475;53.206;-6.106;2023-03-04T03:16:57;4.57;;;1.40;;
58697;SDS011;44475;53.206;-6.106;2023-03-04T03:19:23;3.75;;;1.30;;
58697;SDS011;44475;53.206;-6.106;2023-03-04T03:21:51;4.22;;;1.30;;
58697;SDS011;44475;53.206;-6.106;2023-03-04T03:24:17;3.72;;;1.85;;
58697;SDS011;44475;53.206;-6.106;2023-03-04T03:26:44;2.25;;;1.30;;
58697;SDS011;44475;53.206;-6.106;2023-03-04T03:29:10;4.00;;;1.40;;
58697;SDS011;44475;53.206;-6.106;2023-03-04T03:31:37;2.50;;;1.20;;
58697;SDS011;44475;53.206;-6.106;2023-03-04T03:34:03;3.92;;;1.33;;
58697;SDS011;44475;53.206;-6.106;2023-03-04T03:36:29;3.22;;;1.20;;
58697;SDS011;44475;53.206;-6.106;2023-03-04T03:38:55;4.70;;;1.30;;
58697;SDS011;44475;53.206;-6.106;2023-03-04T03:41:22;2.38;;;1.30;;
58697;SDS011;44475;53.206;-6.106;2023-03-04T03:43:48;3.10;;;1.30;;
58697;SDS011;44475;53.206;-6.106;2023-03-04T03:46:14;2.72;;;1.30;;
58697;SDS011;44475;53.206;-6.106;2023-03-04T03:48:41;3.30;;;1.20;;
58697;SDS011;44475;53.206;-6.106;2023-03-04T03:51:07;4.00;;;1.42;;
58697;SDS011;44475;53.206;-6.106;2023-03-04T03:53:33;1.40;;;1.10;;
58697;SDS011;44475;53.206;-6.106;2023-03-04T03:55:59;2.70;;;1.33;;
58697;SDS011;44475;53.206;-6.106;2023-03-04T03:58:26;1.70;;;1.20;;
58697;SDS011;44475;53.206;-6.106;2023-03-04T04:00:52;3.40;;;1.30;;
58697;SDS011;44475;53.206;-6.106;2023-03-04T04:03:18;3.20;;;2.15;;
58697;SDS011;44475;53.206;-6.106;2023-03-04T04:05:45;4.18;;;1.20;;
58697;SDS011;44475;53.206;-6.106;2023-03-04T04:08:12;2.17;;;1.23;;
58697;SDS011;44475;53.206;-6.106;2023-03-04T04:10:39;2.75;;;1.25;;
58697;SDS011;44475;53.206;-6.106;2023-03-04T04:13:06;3.08;;;1.30;;
58697;SDS011;44475;53.206;-6.106;2023-03-04T04:15:33;3.45;;;1.27;;
58697;SDS011;44475;53.206;-6.106;2023-03-04T04:18:01;1.98;;;1.23;;
58697;SDS011;44475;53.206;-6.106;2023-03-04T04:20:27;1.83;;;1.30;;
58697;SDS011;44475;53.206;-6.106;2023-03-04T04:22:53;3.15;;;1.92;;
58697;SDS011;44475;53.206;-6.106;2023-03-04T04:25:19;3.55;;;1.25;;
58697;SDS011;44475;53.206;-6.106;2023-03-04T04:27:46;1.58;;;1.05;;
58697;SDS011;44475;53.206;-6.106;2023-03-04T04:30:12;1.73;;;1.20;;
58697;SDS011;44475;53.206;-6.106;2023-03-04T04:32:39;2.92;;;1.20;;
58697;SDS011;44475;53.206;-6.106;2023-03-04T04:35:05;1.58;;;1.10;;
58697;SDS011;44475;53.206;-6.106;2023-03-04T04:37:32;2.97;;;1.20;;
58697;SDS011;44475;53.206;-6.106;2023-03-04T04:39:58;1.92;;;1.23;;
58697;SDS011;44475;53.206;-6.106;2023-03-04T04:42:25;2.67;;;1.23;;
58697;SDS011;44475;53.206;-6.106;2023-03-04T04:44:51;1.20;;;1.10;;
58697;SDS011;44475;53.206;-6.106;2023-03-04T04:47:17;1.98;;;1.02;;
58697;SDS011;44475;53.206;-6.106;2023-03-04T04:49:44;1.58;;;1.25;;
58697;SDS011;44475;53.206;-6.106;2023-03-04T04:52:10;2.05;;;0.90;;
58697;SDS011;44475;53.206;-6.106;2023-03-04T04:54:36;2.38;;;1.20;;
58697;SDS011;44475;53.206;-6.106;2023-03-04T04:57:03;2.45;;;1.13;;
58697;SDS011;44475;53.206;-6.106;2023-03-04T04:59:29;1.92;;;1.20;;
58697;SDS011;44475;53.206;-6.106;2023-03-04T05:01:55;3.22;;;1.30;;
58697;SDS011;44475;53.206;-6.106;2023-03-04T05:04:21;1.58;;;1.20;;
58697;SDS011;44475;53.206;-6.106;2023-03-04T05:06:48;1.02;;;0.93;;
58697;SDS011;44475;53.206;-6.106;2023-03-04T05:09:14;1.25;;;1.10;;
58697;SDS011;44475;53.206;-6.106;2023-03-04T05:11:40;1.92;;;1.20;;
58697;SDS011;44475;53.206;-6.106;2023-03-04T05:14:07;1.35;;;1.25;;
58697;SDS011;44475;53.206;-6.106;2023-03-04T05:16:33;2.22;;;1.13;;
58697;SDS011;44475;53.206;-6.106;2023-03-04T05:18:59;1.35;;;1.10;;
58697;SDS011;44475;53.206;-6.106;2023-03-04T05:21:26;2.17;;;1.20;;
58697;SDS011;44475;53.206;-6.106;2023-03-04T05:23:52;1.77;;;1.05;;
58697;SDS011;44475;53.206;-6.106;2023-03-04T05:26:18;1.17;;;1.08;;
58697;SDS011;44475;53.206;-6.106;2023-03-04T05:28:44;1.52;;;1.10;;
58697;SDS011;44475;53.206;-6.106;2023-03-04T05:31:11;1.52;;;1.17;;
58697;SDS011;44475;53.206;-6.106;2023-03-04T05:33:37;1.00;;;1.00;;
58697;SDS011;44475;53.206;-6.106;2023-03-04T05:36:04;1.88;;;1.20;;
58697;SDS011;44475;53.206;-6.106;2023-03-04T05:38:31;1.20;;;1.10;;
58697;SDS011;44475;53.206;-6.106;2023-03-04T05:40:59;1.02;;;0.93;;
58697;SDS011;44475;53.206;-6.106;2023-03-04T05:43:27;1.20;;;1.02;;
58697;SDS011;44475;53.206;-6.106;2023-03-04T05:45:54;1.08;;;1.00;;
58697;SDS011;44475;53.206;-6.106;2023-03-04T05:48:20;0.98;;;0.98;;
58697;SDS011;44475;53.206;-6.106;2023-03-04T05:50:52;1.35;;;1.00;;
58697;SDS011;44475;53.206;-6.106;2023-03-04T05:53:21;1.33;;;0.93;;
58697;SDS011;44475;53.206;-6.106;2023-03-04T05:55:48;0.90;;;0.90;;
58697;SDS011;44475;53.206;-6.106;2023-03-04T05:58:15;1.95;;;1.20;;
58697;SDS011;44475;53.206;-6.106;2023-03-04T06:00:42;1.33;;;1.23;;
58697;SDS011;44475;53.206;-6.106;2023-03-04T06:03:13;1.20;;;1.20;;
58697;SDS011;44475;53.206;-6.106;2023-03-04T06:05:41;1.45;;;1.20;;
58697;SDS011;44475;53.206;-6.106;2023-03-04T06:08:07;1.35;;;1.10;;
58697;SDS011;44475;53.206;-6.106;2023-03-04T06:10:34;4.35;;;1.00;;
58697;SDS011;44475;53.206;-6.106;2023-03-04T06:13:01;1.08;;;0.95;;
58697;SDS011;44475;53.206;-6.106;2023-03-04T06:15:27;1.58;;;1.10;;
58697;SDS011;44475;53.206;-6.106;2023-03-04T06:17:54;1.10;;;0.93;;
58697;SDS011;44475;53.206;-6.106;2023-03-04T06:20:21;1.20;;;1.00;;
58697;SDS011;44475;53.206;-6.106;2023-03-04T06:22:47;1.38;;;1.02;;
58697;SDS011;44475;53.206;-6.106;2023-03-04T06:25:13;1.00;;;1.00;;
58697;SDS011;44475;53.206;-6.106;2023-03-04T06:27:40;1.75;;;1.00;;
58697;SDS011;44475;53.206;-6.106;2023-03-04T06:30:06;1.10;;;1.00;;
58697;SDS011;44475;53.206;-6.106;2023-03-04T06:32:33;1.02;;;1.00;;
58697;SDS011;44475;53.206;-6.106;2023-03-04T06:34:59;0.95;;;0.90;;
58697;SDS011;44475;53.206;-6.106;2023-03-04T06:37:26;1.52;;;1.10;;
58697;SDS011;44475;53.206;-6.106;2023-03-04T06:39:52;1.85;;;1.20;;
58697;SDS011;44475;53.206;-6.106;2023-03-04T06:42:20;1.25;;;1.00;;
58697;SDS011;44475;53.206;-6.106;2023-03-04T06:44:47;1.00;;;1.00;;
58697;SDS011;44475;53.206;-6.106;2023-03-04T06:47:13;1.20;;;1.10;;
58697;SDS011;44475;53.206;-6.106;2023-03-04T06:49:40;2.45;;;1.15;;
58697;SDS011;44475;53.206;-6.106;2023-03-04T06:52:07;1.20;;;1.10;;
58697;SDS011;44475;53.206;-6.106;2023-03-04T06:54:35;1.20;;;1.10;;
58697;SDS011;44475;53.206;-6.106;2023-03-04T06:57:01;1.13;;;1.02;;
58697;SDS011;44475;53.206;-6.106;2023-03-04T06:59:28;2.33;;;1.33;;
58697;SDS011;44475;53.206;-6.106;2023-03-04T07:01:54;1.17;;;1.10;;
58697;SDS011;44475;53.206;-6.106;2023-03-04T07:04:20;1.08;;;1.02;;
58697;SDS011;44475;53.206;-6.106;2023-03-04T07:06:47;1.17;;;1.15;;
58697;SDS011;44475;53.206;-6.106;2023-03-04T07:09:14;1.30;;;1.20;;
58697;SDS011;44475;53.206;-6.106;2023-03-04T07:11:42;1.95;;;1.17;;
58697;SDS011;44475;53.206;-6.106;2023-03-04T07:14:08;2.50;;;1.20;;
58697;SDS011;44475;53.206;-6.106;2023-03-04T07:16:35;1.98;;;1.20;;
58697;SDS011;44475;53.206;-6.106;2023-03-04T07:19:01;1.55;;;1.10;;
58697;SDS011;44475;53.206;-6.106;2023-03-04T07:21:28;1.65;;;1.20;;
58697;SDS011;44475;53.206;-6.106;2023-03-04T07:23:54;2.67;;;1.30;;
58697;SDS011;44475;53.206;-6.106;2023-03-04T07:26:21;2.38;;;1.27;;
58697;SDS011;44475;53.206;-6.106;2023-03-04T07:28:47;2.65;;;1.10;;
58697;SDS011;44475;53.206;-6.106;2023-03-04T07:31:20;1.75;;;1.20;;
58697;SDS011;44475;53.206;-6.106;2023-03-04T07:33:49;1.73;;;1.30;;
58697;SDS011;44475;53.206;-6.106;2023-03-04T07:36:15;2.33;;;1.20;;
58697;SDS011;44475;53.206;-6.106;2023-03-04T07:38:47;2.50;;;1.30;;
58697;SDS011;44475;53.206;-6.106;2023-03-04T07:41:15;1.63;;;1.30;;
58697;SDS011;44475;53.206;-6.106;2023-03-04T07:43:42;1.20;;;1.10;;
58697;SDS011;44475;53.206;-6.106;2023-03-04T07:46:08;3.28;;;1.33;;
58697;SDS011;44475;53.206;-6.106;2023-03-04T07:48:35;1.05;;;1.05;;
58697;SDS011;44475;53.206;-6.106;2023-03-04T07:51:11;1.98;;;1.13;;
58697;SDS011;44475;53.206;-6.106;2023-03-04T07:53:40;1.27;;;1.17;;
58697;SDS011;44475;53.206;-6.106;2023-03-04T07:56:10;1.60;;;1.20;;
58697;SDS011;44475;53.206;-6.106;2023-03-04T07:58:39;1.42;;;1.30;;
58697;SDS011;44475;53.206;-6.106;2023-03-04T08:01:10;2.67;;;1.35;;
58697;SDS011;44475;53.206;-6.106;2023-03-04T08:03:37;1.33;;;1.20;;
58697;SDS011;44475;53.206;-6.106;2023-03-04T08:06:05;2.22;;;1.38;;
58697;SDS011;44475;53.206;-6.106;2023-03-04T08:08:32;1.55;;;1.10;;
58697;SDS011;44475;53.206;-6.106;2023-03-04T08:10:59;1.63;;;1.15;;
58697;SDS011;44475;53.206;-6.106;2023-03-04T08:13:28;1.42;;;1.25;;
58697;SDS011;44475;53.206;-6.106;2023-03-04T08:15:55;1.40;;;1.25;;
58697;SDS011;44475;53.206;-6.106;2023-03-04T08:18:21;1.40;;;1.30;;
58697;SDS011;44475;53.206;-6.106;2023-03-04T08:20:48;2.13;;;1.30;;
58697;SDS011;44475;53.206;-6.106;2023-03-04T08:23:14;2.08;;;1.42;;
58697;SDS011;44475;53.206;-6.106;2023-03-04T08:25:41;1.75;;;1.35;;
58697;SDS011;44475;53.206;-6.106;2023-03-04T08:28:08;2.88;;;1.30;;
58697;SDS011;44475;53.206;-6.106;2023-03-04T08:30:37;1.73;;;1.40;;
58697;SDS011;44475;53.206;-6.106;2023-03-04T08:33:04;2.17;;;1.30;;
58697;SDS011;44475;53.206;-6.106;2023-03-04T08:35:30;3.72;;;1.40;;
58697;SDS011;44475;53.206;-6.106;2023-03-04T08:37:57;3.65;;;1.38;;
58697;SDS011;44475;53.206;-6.106;2023-03-04T08:40:23;3.00;;;1.23;;
58697;SDS011;44475;53.206;-6.106;2023-03-04T08:42:51;2.78;;;1.30;;
58697;SDS011;44475;53.206;-6.106;2023-03-04T08:45:17;2.85;;;1.50;;
58697;SDS011;44475;53.206;-6.106;2023-03-04T08:47:44;1.83;;;1.38;;
58697;SDS011;44475;53.206;-6.106;2023-03-04T08:50:10;1.40;;;1.30;;
58697;SDS011;44475;53.206;-6.106;2023-03-04T08:52:36;2.78;;;1.40;;
58697;SDS011;44475;53.206;-6.106;2023-03-04T08:55:03;1.58;;;1.20;;
58697;SDS011;44475;53.206;-6.106;2023-03-04T08:57:29;4.75;;;1.40;;
58697;SDS011;44475;53.206;-6.106;2023-03-04T08:59:56;5.03;;;1.50;;
58697;SDS011;44475;53.206;-6.106;2023-03-04T09:02:22;1.98;;;1.30;;
58697;SDS011;44475;53.206;-6.106;2023-03-04T09:04:48;2.15;;;1.33;;
58697;SDS011;44475;53.206;-6.106;2023-03-04T09:07:15;2.95;;;1.30;;
58697;SDS011;44475;53.206;-6.106;2023-03-04T09:09:41;2.42;;;1.40;;
58697;SDS011;44475;53.206;-6.106;2023-03-04T09:12:07;2.90;;;1.40;;
58697;SDS011;44475;53.206;-6.106;2023-03-04T09:14:34;1.60;;;1.40;;
58697;SDS011;44475;53.206;-6.106;2023-03-04T09:17:01;1.92;;;1.30;;
58697;SDS011;44475;53.206;-6.106;2023-03-04T09:19:28;3.10;;;1.50;;
58697;SDS011;44475;53.206;-6.106;2023-03-04T09:21:54;2.00;;;1.40;;
58697;SDS011;44475;53.206;-6.106;2023-03-04T09:24:21;2.08;;;1.42;;
58697;SDS011;44475;53.206;-6.106;2023-03-04T09:26:51;2.13;;;1.40;;
58697;SDS011;44475;53.206;-6.106;2023-03-04T09:29:19;1.42;;;1.30;;
58697;SDS011;44475;53.206;-6.106;2023-03-04T09:31:46;3.30;;;1.35;;
58697;SDS011;44475;53.206;-6.106;2023-03-04T09:34:12;2.03;;;1.50;;
58697;SDS011;44475;53.206;-6.106;2023-03-04T09:36:39;2.72;;;1.50;;
58697;SDS011;44475;53.206;-6.106;2023-03-04T09:39:05;1.55;;;1.40;;
58697;SDS011;44475;53.206;-6.106;2023-03-04T09:41:42;1.90;;;1.40;;
58697;SDS011;44475;53.206;-6.106;2023-03-04T09:44:33;2.42;;;1.50;;
58697;SDS011;44475;53.206;-6.106;2023-03-04T09:47:03;2.13;;;1.60;;
58697;SDS011;44475;53.206;-6.106;2023-03-04T09:49:36;2.83;;;1.42;;
58697;SDS011;44475;53.206;-6.106;2023-03-04T09:52:27;1.80;;;1.40;;
58697;SDS011;44475;53.206;-6.106;2023-03-04T09:55:14;1.98;;;1.50;;
58697;SDS011;44475;53.206;-6.106;2023-03-04T09:57:50;1.95;;;1.40;;
58697;SDS011;44475;53.206;-6.106;2023-03-04T10:05:41;2.28;;;1.50;;
58697;SDS011;44475;53.206;-6.106;2023-03-04T10:08:30;2.03;;;1.55;;
58697;SDS011;44475;53.206;-6.106;2023-03-04T10:11:02;1.50;;;1.40;;
58697;SDS011;44475;53.206;-6.106;2023-03-04T10:14:19;1.67;;;1.45;;
58697;SDS011;44475;53.206;-6.106;2023-03-04T10:16:48;1.75;;;1.40;;
58697;SDS011;44475;53.206;-6.106;2023-03-04T10:25:14;2.90;;;1.40;;
58697;SDS011;44475;53.206;-6.106;2023-03-04T10:27:48;2.50;;;1.40;;
58697;SDS011;44475;53.206;-6.106;2023-03-04T10:30:30;2.15;;;1.50;;
58697;SDS011;44475;53.206;-6.106;2023-03-04T10:33:13;2.08;;;1.45;;
58697;SDS011;44475;53.206;-6.106;2023-03-04T10:35:42;1.75;;;1.40;;
58697;SDS011;44475;53.206;-6.106;2023-03-04T10:38:15;2.13;;;1.50;;
58697;SDS011;44475;53.206;-6.106;2023-03-04T10:40:43;2.17;;;1.50;;
58697;SDS011;44475;53.206;-6.106;2023-03-04T10:43:13;2.08;;;1.40;;
58697;SDS011;44475;53.206;-6.106;2023-03-04T10:45:44;2.75;;;1.55;;
58697;SDS011;44475;53.206;-6.106;2023-03-04T10:48:16;2.20;;;1.58;;
58697;SDS011;44475;53.206;-6.106;2023-03-04T10:53:22;1.40;;;1.30;;
58697;SDS011;44475;53.206;-6.106;2023-03-04T10:55:57;3.10;;;1.50;;
58697;SDS011;44475;53.206;-6.106;2023-03-04T10:58:24;3.50;;;1.60;;
58697;SDS011;44475;53.206;-6.106;2023-03-04T11:01:00;2.20;;;1.60;;
58697;SDS011;44475;53.206;-6.106;2023-03-04T11:03:31;1.55;;;1.45;;
58697;SDS011;44475;53.206;-6.106;2023-03-04T11:08:44;2.00;;;1.52;;
58697;SDS011;44475;53.206;-6.106;2023-03-04T11:11:36;1.85;;;1.40;;
58697;SDS011;44475;53.206;-6.106;2023-03-04T11:14:15;2.38;;;1.55;;
58697;SDS011;44475;53.206;-6.106;2023-03-04T11:16:51;2.67;;;1.50;;
58697;SDS011;44475;53.206;-6.106;2023-03-04T11:19:21;2.08;;;1.50;;
58697;SDS011;44475;53.206;-6.106;2023-03-04T11:21:53;4.32;;;1.50;;
58697;SDS011;44475;53.206;-6.106;2023-03-04T11:24:25;4.70;;;1.70;;
58697;SDS011;44475;53.206;-6.106;2023-03-04T11:29:32;5.70;;;1.60;;
58697;SDS011;44475;53.206;-6.106;2023-03-04T11:35:00;7.47;;;1.80;;
58697;SDS011;44475;53.206;-6.106;2023-03-04T11:37:40;5.05;;;1.80;;
58697;SDS011;44475;53.206;-6.106;2023-03-04T11:40:24;6.25;;;1.80;;
58697;SDS011;44475;53.206;-6.106;2023-03-04T11:42:58;4.05;;;1.98;;
58697;SDS011;44475;53.206;-6.106;2023-03-04T11:48:50;3.20;;;1.83;;
58697;SDS011;44475;53.206;-6.106;2023-03-04T11:54:13;7.70;;;1.70;;
58697;SDS011;44475;53.206;-6.106;2023-03-04T11:56:51;6.57;;;2.20;;
58697;SDS011;44475;53.206;-6.106;2023-03-04T11:59:29;7.32;;;3.00;;
58697;SDS011;44475;53.206;-6.106;2023-03-04T12:02:20;6.82;;;2.90;;
58697;SDS011;44475;53.206;-6.106;2023-03-04T12:04:59;8.18;;;3.20;;
58697;SDS011;44475;53.206;-6.106;2023-03-04T12:11:01;5.63;;;3.38;;
58697;SDS011;44475;53.206;-6.106;2023-03-04T12:32:22;9.45;;;2.92;;
58697;SDS011;44475;53.206;-6.106;2023-03-04T12:34:54;4.72;;;2.88;;
58697;SDS011;44475;53.206;-6.106;2023-03-04T12:40:37;5.93;;;2.80;;
58697;SDS011;44475;53.206;-6.106;2023-03-04T12:43:34;5.53;;;2.60;;
58697;SDS011;44475;53.206;-6.106;2023-03-04T12:59:25;9.35;;;2.80;;
58697;SDS011;44475;53.206;-6.106;2023-03-04T13:08:18;11.50;;;3.30;;
58697;SDS011;44475;53.206;-6.106;2023-03-04T13:16:49;24.77;;;3.38;;
58697;SDS011;44475;53.206;-6.106;2023-03-04T13:22:26;21.35;;;4.20;;
58697;SDS011;44475;53.206;-6.106;2023-03-04T13:24:55;26.48;;;4.15;;
58697;SDS011;44475;53.206;-6.106;2023-03-04T13:43:43;39.83;;;4.50;;
58697;SDS011;44475;53.206;-6.106;2023-03-04T13:48:58;40.50;;;4.40;;
58697;SDS011;44475;53.206;-6.106;2023-03-04T13:59:38;59.22;;;6.18;;
58697;SDS011;44475;53.206;-6.106;2023-03-04T14:02:14;39.78;;;5.72;;
58697;SDS011;44475;53.206;-6.106;2023-03-04T14:05:05;54.58;;;7.97;;
58697;SDS011;44475;53.206;-6.106;2023-03-04T14:07:32;75.38;;;7.55;;
58697;SDS011;44475;53.206;-6.106;2023-03-04T14:10:01;78.65;;;8.35;;
58697;SDS011;44475;53.206;-6.106;2023-03-04T14:12:32;70.55;;;7.30;;
58697;SDS011;44475;53.206;-6.106;2023-03-04T14:15:47;65.60;;;7.22;;
58697;SDS011;44475;53.206;-6.106;2023-03-04T14:17:55;37.45;;;5.43;;
58697;SDS011;44475;53.206;-6.106;2023-03-04T14:20:36;36.05;;;4.88;;
58697;SDS011;44475;53.206;-6.106;2023-03-04T14:23:25;39.00;;;5.10;;
58697;SDS011;44475;53.206;-6.106;2023-03-04T14:26:08;53.80;;;5.70;;
58697;SDS011;44475;53.206;-6.106;2023-03-04T14:28:56;59.50;;;6.65;;
58697;SDS011;44475;53.206;-6.106;2023-03-04T14:31:25;67.35;;;6.82;;
58697;SDS011;44475;53.206;-6.106;2023-03-04T14:33:55;96.82;;;7.53;;
58697;SDS011;44475;53.206;-6.106;2023-03-04T14:36:30;61.75;;;6.65;;
58697;SDS011;44475;53.206;-6.106;2023-03-04T14:38:59;43.83;;;7.03;;
58697;SDS011;44475;53.206;-6.106;2023-03-04T14:46:46;29.92;;;5.10;;
58697;SDS011;44475;53.206;-6.106;2023-03-04T14:49:14;19.48;;;4.47;;
58697;SDS011;44475;53.206;-6.106;2023-03-04T14:51:46;17.67;;;4.90;;
58697;SDS011;44475;53.206;-6.106;2023-03-04T14:55:07;17.85;;;4.30;;
58697;SDS011;44475;53.206;-6.106;2023-03-04T14:57:24;12.53;;;4.07;;
58697;SDS011;44475;53.206;-6.106;2023-03-04T14:59:53;31.58;;;5.78;;
58697;SDS011;44475;53.206;-6.106;2023-03-04T15:02:34;37.03;;;5.97;;
58697;SDS011;44475;53.206;-6.106;2023-03-04T15:05:07;36.30;;;6.07;;
58697;SDS011;44475;53.206;-6.106;2023-03-04T15:07:40;27.50;;;5.70;;
58697;SDS011;44475;53.206;-6.106;2023-03-04T15:10:09;32.30;;;5.70;;
58697;SDS011;44475;53.206;-6.106;2023-03-04T15:12:37;25.98;;;5.30;;
58697;SDS011;44475;53.206;-6.106;2023-03-04T15:20:52;11.20;;;4.00;;
58697;SDS011;44475;53.206;-6.106;2023-03-04T15:23:20;21.90;;;4.30;;
58697;SDS011;44475;53.206;-6.106;2023-03-04T15:25:49;14.45;;;3.63;;
58697;SDS011;44475;53.206;-6.106;2023-03-04T15:28:21;28.73;;;5.05;;
58697;SDS011;44475;53.206;-6.106;2023-03-04T15:30:49;35.15;;;5.30;;
58697;SDS011;44475;53.206;-6.106;2023-03-04T15:33:16;26.40;;;5.25;;
58697;SDS011;44475;53.206;-6.106;2023-03-04T15:36:01;22.30;;;4.90;;
58697;SDS011;44475;53.206;-6.106;2023-03-04T15:38:28;16.33;;;4.05;;
58697;SDS011;44475;53.206;-6.106;2023-03-04T15:40:55;13.93;;;3.80;;
58697;SDS011;44475;53.206;-6.106;2023-03-04T15:43:23;12.02;;;3.78;;
58697;SDS011;44475;53.206;-6.106;2023-03-04T15:45:51;20.58;;;4.43;;
58697;SDS011;44475;53.206;-6.106;2023-03-04T15:48:17;11.35;;;4.22;;
58697;SDS011;44475;53.206;-6.106;2023-03-04T15:50:48;15.35;;;4.32;;
58697;SDS011;44475;53.206;-6.106;2023-03-04T15:55:57;16.02;;;4.07;;
58697;SDS011;44475;53.206;-6.106;2023-03-04T15:58:25;19.00;;;3.70;;
58697;SDS011;44475;53.206;-6.106;2023-03-04T16:00:52;8.70;;;3.70;;
58697;SDS011;44475;53.206;-6.106;2023-03-04T16:03:19;6.72;;;3.80;;
58697;SDS011;44475;53.206;-6.106;2023-03-04T16:05:48;10.60;;;3.72;;
58697;SDS011;44475;53.206;-6.106;2023-03-04T16:08:18;15.07;;;3.95;;
58697;SDS011;44475;53.206;-6.106;2023-03-04T16:10:45;16.48;;;4.40;;
58697;SDS011;44475;53.206;-6.106;2023-03-04T16:13:13;18.67;;;4.88;;
58697;SDS011;44475;53.206;-6.106;2023-03-04T16:15:41;15.20;;;4.68;;
58697;SDS011;44475;53.206;-6.106;2023-03-04T16:18:08;21.30;;;4.85;;
58697;SDS011;44475;53.206;-6.106;2023-03-04T16:20:35;23.05;;;4.88;;
58697;SDS011;44475;53.206;-6.106;2023-03-04T16:23:02;25.52;;;5.25;;
58697;SDS011;44475;53.206;-6.106;2023-03-04T16:25:29;17.95;;;5.20;;
58697;SDS011;44475;53.206;-6.106;2023-03-04T16:27:56;19.77;;;4.93;;
58697;SDS011;44475;53.206;-6.106;2023-03-04T16:30:26;17.95;;;5.03;;
58697;SDS011;44475;53.206;-6.106;2023-03-04T16:32:53;15.30;;;4.75;;
58697;SDS011;44475;53.206;-6.106;2023-03-04T16:35:20;13.13;;;5.00;;
58697;SDS011;44475;53.206;-6.106;2023-03-04T16:37:51;19.02;;;4.95;;
58697;SDS011;44475;53.206;-6.106;2023-03-04T16:40:19;14.95;;;4.72;;
58697;SDS011;44475;53.206;-6.106;2023-03-04T16:42:50;8.65;;;4.43;;
58697;SDS011;44475;53.206;-6.106;2023-03-04T16:45:20;17.70;;;4.40;;
58697;SDS011;44475;53.206;-6.106;2023-03-04T16:47:49;15.55;;;5.13;;
58697;SDS011;44475;53.206;-6.106;2023-03-04T16:50:17;13.43;;;4.55;;
58697;SDS011;44475;53.206;-6.106;2023-03-04T16:52:46;14.15;;;4.80;;